createdAt,value
2017-07-03T00:01:24.166Z,4.83
2017-07-03T00:03:51.655Z,4.73
2017-07-03T00:06:19.130Z,4.93
2017-07-03T00:08:46.623Z,4.30
2017-07-03T00:11:14.104Z,4.60
2017-07-03T00:13:41.590Z,4.03
2017-07-03T00:16:09.071Z,5.13
2017-07-03T00:18:36.546Z,4.77
2017-07-03T00:21:04.035Z,3.97
2017-07-03T00:23:32.283Z,4.67
2017-07-03T00:25:59.770Z,4.60
2017-07-03T00:28:28.015Z,4.47
2017-07-03T00:30:55.521Z,4.90
2017-07-03T00:33:23.001Z,4.90
2017-07-03T00:35:50.494Z,5.73
2017-07-03T00:38:17.975Z,5.20
2017-07-03T00:40:45.476Z,5.80
2017-07-03T00:43:12.951Z,4.87
2017-07-03T00:45:40.448Z,5.63
2017-07-03T00:48:07.945Z,4.90
2017-07-03T00:50:35.439Z,5.37
2017-07-03T00:53:02.915Z,5.20
2017-07-03T00:55:30.947Z,5.70
2017-07-03T00:57:58.447Z,5.43
2017-07-03T01:00:25.923Z,4.93
2017-07-03T01:02:53.414Z,6.47
2017-07-03T01:05:20.890Z,5.33
2017-07-03T01:07:48.390Z,5.83
2017-07-03T01:10:15.867Z,5.50
2017-07-03T01:12:43.356Z,8.23
2017-07-03T01:15:10.839Z,6.73
2017-07-03T01:17:38.334Z,5.90
2017-07-03T01:20:05.810Z,5.20
2017-07-03T01:22:33.306Z,5.67
2017-07-03T01:25:00.788Z,6.33
2017-07-03T01:27:28.290Z,5.10
2017-07-03T01:29:55.760Z,5.90
2017-07-03T01:32:24.006Z,5.70
2017-07-03T01:34:51.494Z,5.80
2017-07-03T01:37:19.733Z,5.93
2017-07-03T01:39:47.223Z,7.37
2017-07-03T01:42:14.702Z,7.80
2017-07-03T01:44:42.195Z,6.90
2017-07-03T01:47:09.669Z,6.83
2017-07-03T01:49:37.163Z,10.73
2017-07-03T01:52:04.635Z,7.03
2017-07-03T01:54:32.131Z,4.80
2017-07-03T01:56:59.606Z,6.30
2017-07-03T01:59:27.862Z,6.80
2017-07-03T02:01:55.331Z,7.03
2017-07-03T02:04:22.831Z,6.70
2017-07-03T02:06:50.312Z,6.93
2017-07-03T02:09:17.791Z,6.20
2017-07-03T02:11:45.281Z,8.77
2017-07-03T02:14:12.759Z,5.73
2017-07-03T02:16:40.259Z,6.77
2017-07-03T02:19:07.735Z,5.77
2017-07-03T02:21:35.995Z,7.43
2017-07-03T02:24:03.474Z,8.80
2017-07-03T02:26:30.998Z,10.10
2017-07-03T02:28:58.470Z,7.07
2017-07-03T02:31:26.710Z,7.13
2017-07-03T02:33:54.207Z,7.00
2017-07-03T02:36:23.298Z,6.23
2017-07-03T02:38:51.560Z,6.90
2017-07-03T02:41:19.034Z,7.13
2017-07-03T02:43:47.311Z,6.63
2017-07-03T02:46:15.550Z,7.63
2017-07-03T02:48:43.043Z,9.40
2017-07-03T02:51:11.286Z,7.67
2017-07-03T02:53:38.774Z,6.97
2017-07-03T02:56:07.043Z,8.30
2017-07-03T02:58:35.298Z,8.13
2017-07-03T03:01:02.771Z,8.07
2017-07-03T03:03:31.031Z,8.10
2017-07-03T03:05:58.526Z,7.07
2017-07-03T03:08:26.039Z,7.37
2017-07-03T03:10:53.523Z,7.73
2017-07-03T03:13:21.022Z,8.00
2017-07-03T03:15:48.506Z,6.60
2017-07-03T03:18:16.031Z,6.00
2017-07-03T03:20:43.518Z,9.38
2017-07-03T03:23:10.992Z,7.30
2017-07-03T03:25:38.487Z,10.60
2017-07-03T03:28:05.975Z,7.27
2017-07-03T03:30:33.479Z,7.17
2017-07-03T03:33:00.966Z,8.17
2017-07-03T03:35:28.459Z,6.93
2017-07-03T03:37:55.938Z,7.90
2017-07-03T03:40:24.201Z,14.03
2017-07-03T03:42:52.447Z,6.90
2017-07-03T03:45:19.942Z,7.10
2017-07-03T03:47:48.190Z,7.30
2017-07-03T03:50:15.672Z,7.67
2017-07-03T03:52:43.939Z,7.30
2017-07-03T03:55:12.194Z,7.95
2017-07-03T03:57:39.688Z,7.43
2017-07-03T04:00:07.168Z,6.75
2017-07-03T04:02:34.655Z,6.57
2017-07-03T04:05:02.154Z,7.20
2017-07-03T04:07:29.650Z,8.83
2017-07-03T04:09:57.127Z,8.50
2017-07-03T04:12:24.622Z,8.45
2017-07-03T04:14:52.108Z,13.77
2017-07-03T04:17:19.607Z,10.20
2017-07-03T04:19:47.087Z,10.37
2017-07-03T04:22:14.623Z,9.07
2017-07-03T04:24:42.110Z,10.77
2017-07-03T04:27:09.613Z,9.20
2017-07-03T04:29:37.114Z,10.50
2017-07-03T04:32:05.368Z,11.63
2017-07-03T04:34:32.866Z,8.23
2017-07-03T04:37:00.350Z,7.95
2017-07-03T04:39:27.850Z,8.30
2017-07-03T04:41:55.331Z,9.90
2017-07-03T04:44:22.822Z,7.23
2017-07-03T04:46:50.291Z,7.47
2017-07-03T04:49:17.803Z,11.30
2017-07-03T04:51:45.280Z,8.67
2017-07-03T04:54:12.754Z,9.53
2017-07-03T04:56:40.249Z,8.67
2017-07-03T04:59:08.498Z,9.83
2017-07-03T05:01:35.998Z,8.50
2017-07-03T05:04:03.483Z,8.80
2017-07-03T05:06:30.970Z,8.30
2017-07-03T05:08:58.442Z,12.83
2017-07-03T05:11:26.710Z,8.40
2017-07-03T05:13:54.955Z,7.17
2017-07-03T05:16:22.446Z,7.57
2017-07-03T05:18:50.692Z,9.17
2017-07-03T05:21:18.187Z,10.67
2017-07-03T05:23:46.451Z,9.93
2017-07-03T05:26:14.695Z,9.40
2017-07-03T05:28:42.186Z,11.27
2017-07-03T05:31:10.425Z,9.70
2017-07-03T05:33:37.923Z,7.47
2017-07-03T05:36:05.398Z,10.63
2017-07-03T05:38:32.900Z,7.97
2017-07-03T05:41:00.376Z,9.23
2017-07-03T05:43:33.647Z,7.60
2017-07-03T05:46:01.126Z,10.70
2017-07-03T05:48:28.630Z,10.17
2017-07-03T05:50:56.106Z,11.60
2017-07-03T05:53:23.598Z,11.63
2017-07-03T05:55:51.843Z,8.57
2017-07-03T05:58:19.338Z,8.17
2017-07-03T06:00:47.590Z,10.87
2017-07-03T06:03:15.072Z,10.70
2017-07-03T06:05:42.570Z,10.50
2017-07-03T06:08:10.050Z,10.83
2017-07-03T06:10:37.538Z,7.07
2017-07-03T06:13:05.783Z,13.00
2017-07-03T06:15:33.281Z,12.63
2017-07-03T06:18:01.526Z,6.77
2017-07-03T06:20:29.014Z,10.53
2017-07-03T06:22:56.507Z,5.40
2017-07-03T06:25:23.991Z,9.53
2017-07-03T06:27:51.474Z,7.37
2017-07-03T06:30:19.727Z,8.23
2017-07-03T06:32:47.198Z,9.10
2017-07-03T06:35:15.437Z,8.70
2017-07-03T06:37:42.926Z,7.50
2017-07-03T06:40:10.398Z,7.53
2017-07-03T06:42:38.660Z,11.87
2017-07-03T06:45:06.127Z,10.57
2017-07-03T06:47:33.619Z,7.47
2017-07-03T06:50:01.090Z,7.73
2017-07-03T06:52:28.583Z,10.13
2017-07-03T06:54:56.058Z,7.30
2017-07-03T06:57:23.550Z,7.50
2017-07-03T06:59:51.112Z,8.17
2017-07-03T07:02:18.587Z,10.70
2017-07-03T07:04:46.074Z,8.50
2017-07-03T07:07:14.310Z,7.70
2017-07-03T07:09:41.807Z,10.63
2017-07-03T07:12:10.042Z,9.97
2017-07-03T07:14:38.350Z,7.43
2017-07-03T07:17:06.586Z,10.23
2017-07-03T07:19:34.091Z,8.23
2017-07-03T07:22:02.330Z,10.13
2017-07-03T07:24:29.828Z,7.20
2017-07-03T07:26:57.308Z,7.70
2017-07-03T07:29:24.795Z,7.70
2017-07-03T07:31:52.270Z,8.57
2017-07-03T07:34:19.763Z,14.77
2017-07-03T07:36:47.242Z,13.20
2017-07-03T07:39:14.736Z,9.07
2017-07-03T07:41:42.210Z,7.63
2017-07-03T07:44:09.727Z,12.40
2017-07-03T07:46:37.206Z,9.10
2017-07-03T07:49:04.684Z,9.90
2017-07-03T07:51:32.170Z,9.97
2017-07-03T07:53:59.642Z,8.73
2017-07-03T07:56:27.130Z,11.70
2017-07-03T07:58:54.613Z,9.23
2017-07-03T08:01:22.119Z,13.83
2017-07-03T08:03:49.600Z,8.40
2017-07-03T08:06:17.102Z,12.73
2017-07-03T08:08:44.581Z,10.30
2017-07-03T08:11:12.088Z,9.70
2017-07-03T08:13:40.330Z,7.87
2017-07-03T08:16:07.822Z,7.47
2017-07-03T08:18:35.296Z,6.17
2017-07-03T08:21:02.793Z,7.50
2017-07-03T08:23:30.271Z,9.70
2017-07-03T08:25:57.764Z,10.40
2017-07-03T08:28:25.250Z,8.73
2017-07-03T08:30:52.722Z,6.57
2017-07-03T08:33:20.239Z,7.10
2017-07-03T08:35:47.715Z,6.63
2017-07-03T08:38:15.202Z,8.83
2017-07-03T08:40:42.669Z,9.53
2017-07-03T08:43:10.150Z,6.50
2017-07-03T08:45:38.390Z,10.20
2017-07-03T08:48:05.881Z,9.47
2017-07-03T08:50:34.122Z,8.53
2017-07-03T08:53:01.614Z,9.33
2017-07-03T08:55:29.854Z,7.23
2017-07-03T08:57:57.342Z,9.00
2017-07-03T09:00:25.591Z,12.00
2017-07-03T09:02:53.067Z,9.50
2017-07-03T09:05:21.330Z,11.73
2017-07-03T09:07:48.802Z,11.43
2017-07-03T09:10:17.054Z,8.70
2017-07-03T09:12:44.524Z,8.00
2017-07-03T09:15:12.017Z,5.67
2017-07-03T09:17:39.487Z,6.03
2017-07-03T09:20:06.982Z,6.67
2017-07-03T09:22:34.458Z,6.97
2017-07-03T09:25:01.982Z,9.70
2017-07-03T09:27:29.459Z,7.87
2017-07-03T09:29:56.947Z,8.57
2017-07-03T09:32:24.421Z,8.90
2017-07-03T09:34:51.917Z,7.80
2017-07-03T09:37:19.390Z,7.43
2017-07-03T09:39:47.638Z,8.03
2017-07-03T09:42:15.131Z,6.07
2017-07-03T09:44:43.372Z,6.03
2017-07-03T09:47:10.874Z,6.93
2017-07-03T09:49:38.347Z,5.63
2017-07-03T09:52:05.840Z,5.60
2017-07-03T09:54:33.311Z,6.33
2017-07-03T09:57:00.802Z,4.60
2017-07-03T09:59:28.277Z,3.63
2017-07-03T10:01:55.776Z,4.70
2017-07-03T10:04:23.268Z,5.80
2017-07-03T10:06:50.759Z,4.07
2017-07-03T10:09:18.226Z,8.23
2017-07-03T10:11:45.722Z,4.77
2017-07-03T10:14:13.953Z,3.40
2017-07-03T10:16:41.461Z,3.13
2017-07-03T10:19:08.942Z,2.83
2017-07-03T10:21:36.415Z,4.17
2017-07-03T10:24:03.899Z,5.10
2017-07-03T10:26:31.390Z,6.93
2017-07-03T10:28:58.923Z,3.67
2017-07-03T10:31:27.167Z,4.37
2017-07-03T10:33:54.663Z,7.73
2017-07-03T10:36:22.231Z,4.87
2017-07-03T10:38:49.724Z,3.90
2017-07-03T10:41:17.195Z,4.70
2017-07-03T10:43:44.686Z,3.23
2017-07-03T10:46:12.155Z,4.30
2017-07-03T10:48:39.631Z,4.93
2017-07-03T10:51:07.135Z,2.83
2017-07-03T10:53:34.613Z,4.10
2017-07-03T10:56:02.121Z,3.13
2017-07-03T10:58:29.604Z,4.07
2017-07-03T11:00:57.866Z,3.10
2017-07-03T11:03:25.351Z,3.00
2017-07-03T11:05:52.848Z,5.23
2017-07-03T11:08:20.325Z,3.27
2017-07-03T11:10:47.799Z,2.93
2017-07-03T11:13:16.060Z,3.40
2017-07-03T11:15:44.294Z,3.03
2017-07-03T11:18:11.779Z,2.87
2017-07-03T11:20:39.255Z,3.87
2017-07-03T11:23:06.754Z,3.00
2017-07-03T11:25:34.222Z,2.67
2017-07-03T11:28:01.711Z,2.77
2017-07-03T11:30:29.957Z,5.00
2017-07-03T11:32:57.455Z,2.97
2017-07-03T11:35:24.935Z,2.87
2017-07-03T11:37:52.445Z,4.10
2017-07-03T11:40:20.690Z,3.40
2017-07-03T11:42:48.178Z,5.20
2017-07-03T11:45:16.436Z,2.83
2017-07-03T11:47:43.906Z,2.63
2017-07-03T11:50:12.167Z,2.83
2017-07-03T11:52:39.636Z,2.90
2017-07-03T11:55:07.886Z,3.30
2017-07-03T11:57:35.354Z,2.83
2017-07-03T12:00:02.839Z,3.77
2017-07-03T12:02:30.307Z,2.83
2017-07-03T12:04:57.803Z,2.50
2017-07-03T12:07:25.280Z,4.77
2017-07-03T12:09:53.542Z,2.50
2017-07-03T12:12:21.791Z,2.47
2017-07-03T12:14:49.278Z,4.70
2017-07-03T12:17:17.514Z,2.90
2017-07-03T12:19:45.003Z,2.53
2017-07-03T12:22:13.246Z,2.40
2017-07-03T12:24:40.750Z,2.07
2017-07-03T12:27:08.224Z,2.70
2017-07-03T12:29:35.695Z,2.43
2017-07-03T12:32:03.179Z,2.80
2017-07-03T12:34:30.662Z,5.93
2017-07-03T12:36:58.920Z,2.50
2017-07-03T12:39:27.150Z,2.73
2017-07-03T12:41:54.659Z,2.40
2017-07-03T12:44:22.899Z,4.23
2017-07-03T12:46:50.386Z,4.23
2017-07-03T12:49:18.669Z,4.10
2017-07-03T12:51:46.162Z,2.93
2017-07-03T12:54:13.643Z,3.23
2017-07-03T12:56:41.163Z,2.83
2017-07-03T12:59:08.632Z,2.47
2017-07-03T13:01:36.142Z,2.60
2017-07-03T13:04:03.610Z,2.17
2017-07-03T13:06:31.090Z,2.37
2017-07-03T13:08:58.574Z,3.10
2017-07-03T13:11:26.047Z,3.53
2017-07-03T13:13:53.548Z,2.20
2017-07-03T13:16:21.023Z,2.80
2017-07-03T13:18:48.511Z,2.70
2017-07-03T13:21:16.752Z,2.03
2017-07-03T13:23:44.236Z,2.17
2017-07-03T13:26:12.474Z,2.00
2017-07-03T13:28:39.966Z,2.37
2017-07-03T13:31:08.208Z,2.33
2017-07-03T13:33:35.700Z,2.90
2017-07-03T13:36:03.963Z,2.67
2017-07-03T13:38:32.219Z,2.10
2017-07-03T13:40:59.698Z,1.80
2017-07-03T13:43:27.954Z,2.27
2017-07-03T13:45:55.426Z,3.80
2017-07-03T13:48:22.929Z,2.30
2017-07-03T13:50:50.541Z,2.23
2017-07-03T13:53:19.676Z,6.07
2017-07-03T13:55:47.212Z,4.83
2017-07-03T13:58:14.694Z,2.67
2017-07-03T14:00:42.178Z,2.40
2017-07-03T14:03:10.454Z,2.80
2017-07-03T14:05:37.959Z,3.70
2017-07-03T14:08:05.430Z,2.17
2017-07-03T14:10:32.935Z,2.70
2017-07-03T14:13:01.188Z,2.50
2017-07-03T14:15:28.678Z,2.00
2017-07-03T14:17:56.157Z,2.27
2017-07-03T14:20:23.654Z,2.90
2017-07-03T14:22:51.127Z,3.40
2017-07-03T14:25:18.618Z,6.57
2017-07-03T14:27:46.091Z,2.70
2017-07-03T14:30:13.599Z,3.53
2017-07-03T14:32:41.082Z,2.30
2017-07-03T14:35:08.575Z,3.20
2017-07-03T14:37:36.053Z,2.10
2017-07-03T14:40:04.308Z,2.37
2017-07-03T14:42:31.778Z,2.10
2017-07-03T14:45:00.039Z,3.70
2017-07-03T14:47:27.540Z,2.73
2017-07-03T14:49:55.039Z,2.40
2017-07-03T14:52:22.516Z,6.30
2017-07-03T14:54:50.787Z,2.40
2017-07-03T14:57:19.036Z,2.47
2017-07-03T14:59:46.509Z,4.63
2017-07-03T15:02:14.771Z,2.90
2017-07-03T15:04:42.242Z,2.60
2017-07-03T15:07:10.498Z,3.93
2017-07-03T15:09:37.971Z,2.90
2017-07-03T15:12:06.230Z,2.10
2017-07-03T15:14:33.706Z,3.10
2017-07-03T15:17:01.967Z,2.60
2017-07-03T15:19:29.443Z,2.90
2017-07-03T15:21:56.935Z,3.60
2017-07-03T15:24:24.413Z,2.23
2017-07-03T15:26:51.894Z,3.37
2017-07-03T15:29:20.136Z,2.67
2017-07-03T15:31:47.643Z,2.40
2017-07-03T15:34:15.124Z,4.07
2017-07-03T15:36:42.604Z,5.20
2017-07-03T15:39:10.147Z,2.67
2017-07-03T15:41:37.623Z,2.30
2017-07-03T15:44:05.119Z,3.20
2017-07-03T15:46:32.592Z,3.10
2017-07-03T15:49:00.083Z,5.50
2017-07-03T15:51:27.568Z,2.57
2017-07-03T15:53:55.060Z,3.73
2017-07-03T15:56:22.566Z,3.23
2017-07-03T15:58:50.818Z,2.50
2017-07-03T16:01:18.287Z,4.57
2017-07-03T16:03:46.542Z,4.77
2017-07-03T16:06:14.007Z,5.10
2017-07-03T16:08:41.515Z,4.03
2017-07-03T16:11:08.987Z,3.03
2017-07-03T16:13:36.457Z,3.37
2017-07-03T16:16:03.950Z,2.97
2017-07-03T16:18:31.425Z,2.80
2017-07-03T16:20:58.914Z,2.70
2017-07-03T16:23:26.386Z,2.87
2017-07-03T16:25:53.874Z,2.50
2017-07-03T16:28:21.349Z,3.27
2017-07-03T16:30:48.838Z,2.63
2017-07-03T16:33:16.306Z,4.83
2017-07-03T16:35:43.792Z,2.87
2017-07-03T16:38:11.258Z,4.77
2017-07-03T16:40:38.754Z,4.60
2017-07-03T16:43:06.230Z,4.40
2017-07-03T16:45:33.709Z,3.77
2017-07-03T16:48:01.183Z,2.57
2017-07-03T16:50:28.678Z,3.83
2017-07-03T16:52:56.162Z,2.27
2017-07-03T16:55:24.411Z,2.80
2017-07-03T16:57:52.714Z,3.00
2017-07-03T17:00:20.192Z,3.50
2017-07-03T17:02:47.685Z,3.23
2017-07-03T17:05:15.918Z,2.20
2017-07-03T17:07:43.406Z,2.37
2017-07-03T17:10:10.871Z,2.57
2017-07-03T17:12:38.363Z,2.47
2017-07-03T17:15:05.843Z,2.67
2017-07-03T17:17:33.331Z,2.93
2017-07-03T17:20:00.803Z,2.80
2017-07-03T17:22:28.295Z,2.60
2017-07-03T17:24:55.772Z,3.77
2017-07-03T17:27:23.276Z,3.40
2017-07-03T17:29:51.515Z,3.00
2017-07-03T17:32:19.003Z,3.33
2017-07-03T17:34:47.250Z,2.83
2017-07-03T17:37:14.767Z,3.23
2017-07-03T17:39:42.247Z,2.57
2017-07-03T17:42:09.739Z,2.50
2017-07-03T17:44:38.013Z,3.40
2017-07-03T17:47:06.283Z,3.10
2017-07-03T17:49:33.769Z,3.60
2017-07-03T17:52:01.275Z,2.63
2017-07-03T17:54:28.743Z,2.97
2017-07-03T17:56:56.211Z,2.13
2017-07-03T17:59:24.467Z,2.27
2017-07-03T18:01:51.939Z,5.63
2017-07-03T18:04:19.427Z,2.23
2017-07-03T18:06:46.911Z,2.40
2017-07-03T18:09:14.403Z,2.60
2017-07-03T18:11:42.647Z,1.83
2017-07-03T18:14:10.148Z,2.20
2017-07-03T18:16:37.623Z,2.67
2017-07-03T18:19:05.132Z,2.80
2017-07-03T18:21:33.365Z,2.60
2017-07-03T18:24:00.875Z,2.70
2017-07-03T18:26:28.352Z,6.03
2017-07-03T18:28:55.838Z,2.47
2017-07-03T18:31:23.307Z,2.60
2017-07-03T18:33:52.428Z,2.67
2017-07-03T18:36:20.699Z,2.20
2017-07-03T18:38:48.954Z,2.20
2017-07-03T18:41:16.516Z,4.07
2017-07-03T18:43:44.900Z,2.13
2017-07-03T18:46:13.142Z,3.03
2017-07-03T18:48:40.633Z,2.30
2017-07-03T18:51:08.866Z,3.90
2017-07-03T18:53:36.347Z,3.90
2017-07-03T18:56:04.615Z,2.93
2017-07-03T18:58:32.086Z,2.20
2017-07-03T19:00:59.587Z,2.27
2017-07-03T19:03:27.059Z,2.80
2017-07-03T19:05:54.548Z,2.37
2017-07-03T19:08:22.802Z,2.30
2017-07-03T19:10:50.295Z,2.57
2017-07-03T19:13:17.778Z,2.40
2017-07-03T19:15:45.267Z,2.00
2017-07-03T19:18:12.739Z,1.83
2017-07-03T19:20:41.003Z,2.70
2017-07-03T19:23:09.250Z,3.50
2017-07-03T19:25:36.740Z,2.17
2017-07-03T19:28:04.980Z,2.33
2017-07-03T19:30:32.471Z,1.80
2017-07-03T19:33:00.709Z,2.30
2017-07-03T19:35:28.199Z,1.83
2017-07-03T19:37:56.438Z,3.97
2017-07-03T19:40:23.910Z,2.63
2017-07-03T19:42:52.169Z,9.23
2017-07-03T19:45:19.671Z,3.80
2017-07-03T19:47:47.171Z,2.33
2017-07-03T19:50:14.657Z,2.70
2017-07-03T19:52:42.920Z,1.67
2017-07-03T19:55:10.414Z,3.13
2017-07-03T19:57:37.923Z,1.80
2017-07-03T20:00:05.405Z,1.83
2017-07-03T20:02:32.887Z,2.07
2017-07-03T20:05:00.379Z,3.53
2017-07-03T20:07:27.851Z,4.60
2017-07-03T20:09:56.103Z,8.37
2017-07-03T20:12:23.582Z,2.50
2017-07-03T20:14:51.835Z,3.17
2017-07-03T20:17:19.311Z,2.03
2017-07-03T20:19:47.577Z,11.50
2017-07-03T20:22:15.823Z,3.90
2017-07-03T20:24:43.308Z,2.30
2017-07-03T20:27:11.546Z,2.80
2017-07-03T20:29:39.040Z,2.60
2017-07-03T20:32:07.295Z,2.37
2017-07-03T20:34:34.796Z,2.80
2017-07-03T20:37:02.273Z,2.10
2017-07-03T20:39:29.762Z,2.13
2017-07-03T20:41:57.248Z,3.60
2017-07-03T20:44:24.743Z,2.00
2017-07-03T20:46:52.216Z,2.53
2017-07-03T20:49:19.715Z,2.53
2017-07-03T20:51:47.184Z,1.60
2017-07-03T20:54:14.676Z,3.30
2017-07-03T20:56:42.150Z,4.13
2017-07-03T20:59:09.647Z,2.40
2017-07-03T21:01:37.123Z,4.60
2017-07-03T21:04:04.631Z,1.97
2017-07-03T21:06:32.867Z,3.67
2017-07-03T21:09:00.339Z,2.10
2017-07-03T21:11:27.830Z,2.47
2017-07-03T21:13:55.351Z,2.57
2017-07-03T21:16:23.614Z,3.50
2017-07-03T21:18:51.084Z,2.90
2017-07-03T21:21:18.572Z,2.27
2017-07-03T21:23:46.039Z,3.63
2017-07-03T21:26:13.553Z,2.53
2017-07-03T21:28:41.792Z,2.00
2017-07-03T21:31:09.291Z,1.90
2017-07-03T21:33:37.525Z,2.40
2017-07-03T21:36:05.019Z,2.00
2017-07-03T21:38:32.494Z,3.20
2017-07-03T21:40:59.988Z,2.00
2017-07-03T21:43:27.464Z,3.10
2017-07-03T21:45:55.711Z,2.20
2017-07-03T21:48:23.207Z,1.90
2017-07-03T21:50:51.443Z,2.27
2017-07-03T21:53:18.943Z,2.00
2017-07-03T21:55:46.411Z,1.47
2017-07-03T21:58:13.906Z,2.23
2017-07-03T22:00:41.379Z,1.70
2017-07-03T22:03:08.884Z,2.10
2017-07-03T22:05:36.359Z,4.70
2017-07-03T22:08:03.858Z,1.80
2017-07-03T22:10:31.328Z,1.90
2017-07-03T22:12:58.826Z,2.90
2017-07-03T22:15:26.298Z,3.00
2017-07-03T22:17:53.787Z,2.50
2017-07-03T22:20:21.260Z,2.10
2017-07-03T22:22:48.754Z,2.30
2017-07-03T22:25:16.228Z,2.30
2017-07-03T22:27:43.699Z,2.33
2017-07-03T22:30:11.960Z,2.10
2017-07-03T22:32:39.430Z,3.47
2017-07-03T22:35:07.697Z,2.60
2017-07-03T22:37:35.936Z,1.87
2017-07-03T22:40:03.426Z,2.30
2017-07-03T22:42:31.671Z,2.60
2017-07-03T22:44:59.162Z,2.40
2017-07-03T22:47:27.395Z,3.10
2017-07-03T22:49:54.891Z,3.10
2017-07-03T22:52:23.130Z,2.20
2017-07-03T22:54:50.626Z,3.30
2017-07-03T22:57:18.095Z,2.37
2017-07-03T22:59:45.567Z,2.23
2017-07-03T23:02:13.065Z,1.73
2017-07-03T23:04:40.543Z,2.20
2017-07-03T23:07:08.035Z,3.33
2017-07-03T23:09:35.515Z,1.80
2017-07-03T23:12:03.009Z,1.70
2017-07-03T23:14:31.258Z,4.20
2017-07-03T23:16:58.751Z,2.47
2017-07-03T23:19:26.248Z,2.23
2017-07-03T23:21:53.743Z,2.30
2017-07-03T23:24:21.981Z,3.87
2017-07-03T23:26:49.481Z,2.10
2017-07-03T23:29:16.960Z,2.80
2017-07-03T23:31:44.435Z,3.93
2017-07-03T23:34:11.927Z,2.10
2017-07-03T23:36:39.403Z,3.90
2017-07-03T23:39:06.890Z,2.33
2017-07-03T23:41:34.370Z,2.03
2017-07-03T23:44:01.860Z,2.40
2017-07-03T23:46:29.331Z,2.17
2017-07-03T23:48:56.823Z,2.10
2017-07-03T23:51:24.300Z,4.50
2017-07-03T23:53:51.786Z,6.17
2017-07-03T23:56:19.281Z,3.20
2017-07-03T23:58:46.784Z,5.53
